sensor_id;sensor_type;location;lat;lon;timestamp;P1;durP1;ratioP1;P2;durP2;ratioP2
54881;SDS011;40775;51.448;4.742;2024-01-30T00:01:09;9.13;;;3.72;;
54881;SDS011;40775;51.448;4.742;2024-01-30T00:03:36;6.95;;;4.05;;
54881;SDS011;40775;51.448;4.742;2024-01-30T00:06:03;6.03;;;3.47;;
54881;SDS011;40775;51.448;4.742;2024-01-30T00:08:30;7.80;;;3.78;;
54881;SDS011;40775;51.448;4.742;2024-01-30T00:10:57;6.80;;;3.78;;
54881;SDS011;40775;51.448;4.742;2024-01-30T00:13:25;6.10;;;3.40;;
54881;SDS011;40775;51.448;4.742;2024-01-30T00:15:52;7.05;;;3.63;;
54881;SDS011;40775;51.448;4.742;2024-01-30T00:18:19;5.93;;;3.08;;
54881;SDS011;40775;51.448;4.742;2024-01-30T00:20:46;8.38;;;3.63;;
54881;SDS011;40775;51.448;4.742;2024-01-30T00:23:13;7.50;;;3.60;;
54881;SDS011;40775;51.448;4.742;2024-01-30T00:25:40;7.10;;;3.70;;
54881;SDS011;40775;51.448;4.742;2024-01-30T00:28:07;5.28;;;3.20;;
54881;SDS011;40775;51.448;4.742;2024-01-30T00:30:34;5.97;;;3.42;;
54881;SDS011;40775;51.448;4.742;2024-01-30T00:33:01;7.05;;;3.30;;
54881;SDS011;40775;51.448;4.742;2024-01-30T00:35:28;5.75;;;3.03;;
54881;SDS011;40775;51.448;4.742;2024-01-30T00:37:55;6.82;;;3.63;;
54881;SDS011;40775;51.448;4.742;2024-01-30T00:40:23;6.43;;;2.88;;
54881;SDS011;40775;51.448;4.742;2024-01-30T00:42:50;5.50;;;3.30;;
54881;SDS011;40775;51.448;4.742;2024-01-30T00:45:18;5.65;;;3.00;;
54881;SDS011;40775;51.448;4.742;2024-01-30T00:47:45;6.70;;;3.35;;
54881;SDS011;40775;51.448;4.742;2024-01-30T00:50:12;7.60;;;3.30;;
54881;SDS011;40775;51.448;4.742;2024-01-30T00:52:39;6.55;;;3.35;;
54881;SDS011;40775;51.448;4.742;2024-01-30T00:55:08;5.75;;;3.08;;
54881;SDS011;40775;51.448;4.742;2024-01-30T00:57:35;6.30;;;2.97;;
54881;SDS011;40775;51.448;4.742;2024-01-30T01:00:02;6.55;;;2.97;;
54881;SDS011;40775;51.448;4.742;2024-01-30T01:02:32;8.13;;;3.40;;
54881;SDS011;40775;51.448;4.742;2024-01-30T01:05:00;6.22;;;2.50;;
54881;SDS011;40775;51.448;4.742;2024-01-30T01:07:28;4.57;;;3.03;;
54881;SDS011;40775;51.448;4.742;2024-01-30T01:09:55;4.82;;;2.55;;
54881;SDS011;40775;51.448;4.742;2024-01-30T01:12:22;5.97;;;2.53;;
54881;SDS011;40775;51.448;4.742;2024-01-30T01:14:49;5.28;;;2.65;;
54881;SDS011;40775;51.448;4.742;2024-01-30T01:17:16;5.55;;;2.50;;
54881;SDS011;40775;51.448;4.742;2024-01-30T01:19:44;7.25;;;2.78;;
54881;SDS011;40775;51.448;4.742;2024-01-30T01:22:11;4.20;;;2.08;;
54881;SDS011;40775;51.448;4.742;2024-01-30T01:24:38;5.80;;;2.58;;
54881;SDS011;40775;51.448;4.742;2024-01-30T01:27:06;4.72;;;2.20;;
54881;SDS011;40775;51.448;4.742;2024-01-30T01:29:33;5.45;;;2.90;;
54881;SDS011;40775;51.448;4.742;2024-01-30T01:32:00;5.57;;;2.33;;
54881;SDS011;40775;51.448;4.742;2024-01-30T01:34:27;5.40;;;2.53;;
54881;SDS011;40775;51.448;4.742;2024-01-30T01:36:56;5.53;;;2.15;;
54881;SDS011;40775;51.448;4.742;2024-01-30T01:39:23;5.68;;;2.53;;
54881;SDS011;40775;51.448;4.742;2024-01-30T01:41:50;3.78;;;2.13;;
54881;SDS011;40775;51.448;4.742;2024-01-30T01:44:18;3.67;;;2.10;;
54881;SDS011;40775;51.448;4.742;2024-01-30T01:46:45;5.90;;;2.60;;
54881;SDS011;40775;51.448;4.742;2024-01-30T01:49:17;5.22;;;2.55;;
54881;SDS011;40775;51.448;4.742;2024-01-30T01:51:45;4.18;;;2.35;;
54881;SDS011;40775;51.448;4.742;2024-01-30T01:54:14;5.00;;;2.33;;
54881;SDS011;40775;51.448;4.742;2024-01-30T01:56:43;4.82;;;2.42;;
54881;SDS011;40775;51.448;4.742;2024-01-30T01:59:10;4.25;;;2.05;;
54881;SDS011;40775;51.448;4.742;2024-01-30T02:01:37;5.65;;;2.67;;
54881;SDS011;40775;51.448;4.742;2024-01-30T02:04:05;5.57;;;2.30;;
54881;SDS011;40775;51.448;4.742;2024-01-30T02:06:33;4.45;;;2.25;;
54881;SDS011;40775;51.448;4.742;2024-01-30T02:09:01;5.13;;;2.40;;
54881;SDS011;40775;51.448;4.742;2024-01-30T02:11:28;7.70;;;2.90;;
54881;SDS011;40775;51.448;4.742;2024-01-30T02:13:55;4.88;;;2.67;;
54881;SDS011;40775;51.448;4.742;2024-01-30T02:16:22;4.32;;;2.05;;
54881;SDS011;40775;51.448;4.742;2024-01-30T02:18:50;4.90;;;2.13;;
54881;SDS011;40775;51.448;4.742;2024-01-30T02:21:17;4.93;;;2.58;;
54881;SDS011;40775;51.448;4.742;2024-01-30T02:23:46;4.25;;;2.17;;
54881;SDS011;40775;51.448;4.742;2024-01-30T02:26:14;4.95;;;2.80;;
54881;SDS011;40775;51.448;4.742;2024-01-30T02:28:42;4.57;;;2.50;;
54881;SDS011;40775;51.448;4.742;2024-01-30T02:31:08;4.93;;;2.50;;
54881;SDS011;40775;51.448;4.742;2024-01-30T02:33:36;4.47;;;2.47;;
54881;SDS011;40775;51.448;4.742;2024-01-30T02:36:03;4.70;;;2.15;;
54881;SDS011;40775;51.448;4.742;2024-01-30T02:38:30;6.13;;;2.50;;
54881;SDS011;40775;51.448;4.742;2024-01-30T02:40:57;5.43;;;2.60;;
54881;SDS011;40775;51.448;4.742;2024-01-30T02:43:25;3.65;;;2.20;;
54881;SDS011;40775;51.448;4.742;2024-01-30T02:45:52;4.18;;;2.30;;
54881;SDS011;40775;51.448;4.742;2024-01-30T02:48:19;6.13;;;2.35;;
54881;SDS011;40775;51.448;4.742;2024-01-30T02:50:46;4.53;;;1.98;;
54881;SDS011;40775;51.448;4.742;2024-01-30T02:53:13;5.97;;;2.40;;
54881;SDS011;40775;51.448;4.742;2024-01-30T02:55:40;4.85;;;2.25;;
54881;SDS011;40775;51.448;4.742;2024-01-30T02:58:07;6.07;;;2.15;;
54881;SDS011;40775;51.448;4.742;2024-01-30T03:00:34;5.90;;;2.42;;
54881;SDS011;40775;51.448;4.742;2024-01-30T03:03:01;5.07;;;2.47;;
54881;SDS011;40775;51.448;4.742;2024-01-30T03:05:28;6.82;;;2.90;;
54881;SDS011;40775;51.448;4.742;2024-01-30T03:07:55;4.70;;;2.17;;
54881;SDS011;40775;51.448;4.742;2024-01-30T03:10:23;5.70;;;2.30;;
54881;SDS011;40775;51.448;4.742;2024-01-30T03:12:50;5.57;;;2.22;;
54881;SDS011;40775;51.448;4.742;2024-01-30T03:15:17;5.90;;;2.55;;
54881;SDS011;40775;51.448;4.742;2024-01-30T03:17:44;5.35;;;2.95;;
54881;SDS011;40775;51.448;4.742;2024-01-30T03:20:11;5.78;;;2.50;;
54881;SDS011;40775;51.448;4.742;2024-01-30T03:22:39;5.60;;;2.88;;
54881;SDS011;40775;51.448;4.742;2024-01-30T03:25:06;7.05;;;2.67;;
54881;SDS011;40775;51.448;4.742;2024-01-30T03:27:33;5.45;;;2.38;;
54881;SDS011;40775;51.448;4.742;2024-01-30T03:30:00;4.53;;;2.30;;
54881;SDS011;40775;51.448;4.742;2024-01-30T03:32:28;4.60;;;2.40;;
54881;SDS011;40775;51.448;4.742;2024-01-30T03:34:55;4.53;;;2.47;;
54881;SDS011;40775;51.448;4.742;2024-01-30T03:37:22;4.20;;;2.17;;
54881;SDS011;40775;51.448;4.742;2024-01-30T03:39:49;3.85;;;2.40;;
54881;SDS011;40775;51.448;4.742;2024-01-30T03:42:16;4.45;;;2.53;;
54881;SDS011;40775;51.448;4.742;2024-01-30T03:44:43;5.47;;;1.90;;
54881;SDS011;40775;51.448;4.742;2024-01-30T03:47:10;3.45;;;2.15;;
54881;SDS011;40775;51.448;4.742;2024-01-30T03:49:37;6.32;;;2.55;;
54881;SDS011;40775;51.448;4.742;2024-01-30T03:52:04;4.50;;;1.90;;
54881;SDS011;40775;51.448;4.742;2024-01-30T03:54:32;3.92;;;2.25;;
54881;SDS011;40775;51.448;4.742;2024-01-30T03:56:59;5.40;;;2.88;;
54881;SDS011;40775;51.448;4.742;2024-01-30T03:59:26;4.97;;;2.47;;
54881;SDS011;40775;51.448;4.742;2024-01-30T04:01:53;5.82;;;2.35;;
54881;SDS011;40775;51.448;4.742;2024-01-30T04:04:21;5.75;;;2.33;;
54881;SDS011;40775;51.448;4.742;2024-01-30T04:06:48;4.85;;;2.30;;
54881;SDS011;40775;51.448;4.742;2024-01-30T04:09:15;4.90;;;2.28;;
54881;SDS011;40775;51.448;4.742;2024-01-30T04:11:42;4.65;;;2.28;;
54881;SDS011;40775;51.448;4.742;2024-01-30T04:14:09;4.78;;;1.90;;
54881;SDS011;40775;51.448;4.742;2024-01-30T04:16:36;5.75;;;2.30;;
54881;SDS011;40775;51.448;4.742;2024-01-30T04:19:03;5.38;;;2.33;;
54881;SDS011;40775;51.448;4.742;2024-01-30T04:21:31;5.50;;;2.67;;
54881;SDS011;40775;51.448;4.742;2024-01-30T04:23:58;5.65;;;2.42;;
54881;SDS011;40775;51.448;4.742;2024-01-30T04:26:25;5.32;;;2.60;;
54881;SDS011;40775;51.448;4.742;2024-01-30T04:28:52;4.35;;;1.85;;
54881;SDS011;40775;51.448;4.742;2024-01-30T04:31:19;3.08;;;1.90;;
54881;SDS011;40775;51.448;4.742;2024-01-30T04:33:46;7.13;;;2.30;;
54881;SDS011;40775;51.448;4.742;2024-01-30T04:36:13;4.82;;;2.25;;
54881;SDS011;40775;51.448;4.742;2024-01-30T04:38:40;3.65;;;1.98;;
54881;SDS011;40775;51.448;4.742;2024-01-30T04:41:07;5.63;;;2.38;;
54881;SDS011;40775;51.448;4.742;2024-01-30T04:43:34;4.82;;;2.20;;
54881;SDS011;40775;51.448;4.742;2024-01-30T04:46:02;7.82;;;2.25;;
54881;SDS011;40775;51.448;4.742;2024-01-30T04:48:30;5.95;;;2.08;;
54881;SDS011;40775;51.448;4.742;2024-01-30T04:50:58;4.32;;;1.80;;
54881;SDS011;40775;51.448;4.742;2024-01-30T04:53:25;4.65;;;2.35;;
54881;SDS011;40775;51.448;4.742;2024-01-30T04:55:52;4.63;;;2.30;;
54881;SDS011;40775;51.448;4.742;2024-01-30T04:58:19;3.15;;;1.77;;
54881;SDS011;40775;51.448;4.742;2024-01-30T05:00:46;5.88;;;2.55;;
54881;SDS011;40775;51.448;4.742;2024-01-30T05:03:19;5.82;;;2.55;;
54881;SDS011;40775;51.448;4.742;2024-01-30T05:05:46;5.28;;;1.88;;
54881;SDS011;40775;51.448;4.742;2024-01-30T05:08:13;3.97;;;1.85;;
54881;SDS011;40775;51.448;4.742;2024-01-30T05:10:40;3.90;;;2.03;;
54881;SDS011;40775;51.448;4.742;2024-01-30T05:13:07;9.35;;;2.53;;
54881;SDS011;40775;51.448;4.742;2024-01-30T05:15:34;5.80;;;2.05;;
54881;SDS011;40775;51.448;4.742;2024-01-30T05:18:01;3.78;;;1.73;;
54881;SDS011;40775;51.448;4.742;2024-01-30T05:20:29;5.78;;;2.38;;
54881;SDS011;40775;51.448;4.742;2024-01-30T05:22:56;3.63;;;1.90;;
54881;SDS011;40775;51.448;4.742;2024-01-30T05:25:23;3.83;;;2.05;;
54881;SDS011;40775;51.448;4.742;2024-01-30T05:27:51;5.35;;;2.25;;
54881;SDS011;40775;51.448;4.742;2024-01-30T05:30:18;5.18;;;1.92;;
54881;SDS011;40775;51.448;4.742;2024-01-30T05:32:45;3.85;;;1.92;;
54881;SDS011;40775;51.448;4.742;2024-01-30T05:35:13;3.75;;;2.10;;
54881;SDS011;40775;51.448;4.742;2024-01-30T05:37:40;7.00;;;2.35;;
54881;SDS011;40775;51.448;4.742;2024-01-30T05:40:07;4.00;;;1.88;;
54881;SDS011;40775;51.448;4.742;2024-01-30T05:42:34;3.25;;;2.00;;
54881;SDS011;40775;51.448;4.742;2024-01-30T05:45:02;4.28;;;1.95;;
54881;SDS011;40775;51.448;4.742;2024-01-30T05:47:29;3.72;;;2.03;;
54881;SDS011;40775;51.448;4.742;2024-01-30T05:49:56;2.90;;;1.60;;
54881;SDS011;40775;51.448;4.742;2024-01-30T05:52:23;4.40;;;2.08;;
54881;SDS011;40775;51.448;4.742;2024-01-30T05:54:51;4.80;;;2.08;;
54881;SDS011;40775;51.448;4.742;2024-01-30T05:57:18;5.10;;;2.60;;
54881;SDS011;40775;51.448;4.742;2024-01-30T05:59:45;4.00;;;1.85;;
54881;SDS011;40775;51.448;4.742;2024-01-30T06:02:14;3.80;;;1.98;;
54881;SDS011;40775;51.448;4.742;2024-01-30T06:04:41;4.13;;;2.15;;
54881;SDS011;40775;51.448;4.742;2024-01-30T06:07:08;9.32;;;2.40;;
54881;SDS011;40775;51.448;4.742;2024-01-30T06:09:35;4.30;;;2.00;;
54881;SDS011;40775;51.448;4.742;2024-01-30T06:12:02;4.75;;;2.35;;
54881;SDS011;40775;51.448;4.742;2024-01-30T06:14:31;4.43;;;2.08;;
54881;SDS011;40775;51.448;4.742;2024-01-30T06:16:59;5.72;;;2.05;;
54881;SDS011;40775;51.448;4.742;2024-01-30T06:19:26;5.40;;;2.17;;
54881;SDS011;40775;51.448;4.742;2024-01-30T06:21:54;4.45;;;2.05;;
54881;SDS011;40775;51.448;4.742;2024-01-30T06:24:21;3.67;;;1.95;;
54881;SDS011;40775;51.448;4.742;2024-01-30T06:26:48;5.72;;;2.33;;
54881;SDS011;40775;51.448;4.742;2024-01-30T06:29:15;3.88;;;1.90;;
54881;SDS011;40775;51.448;4.742;2024-01-30T06:31:45;4.90;;;2.33;;
54881;SDS011;40775;51.448;4.742;2024-01-30T06:34:12;3.85;;;2.35;;
54881;SDS011;40775;51.448;4.742;2024-01-30T06:36:40;4.03;;;1.90;;
54881;SDS011;40775;51.448;4.742;2024-01-30T06:39:07;3.35;;;1.95;;
54881;SDS011;40775;51.448;4.742;2024-01-30T06:41:35;3.42;;;2.00;;
54881;SDS011;40775;51.448;4.742;2024-01-30T06:44:02;4.28;;;1.95;;
54881;SDS011;40775;51.448;4.742;2024-01-30T06:46:31;9.00;;;3.97;;
54881;SDS011;40775;51.448;4.742;2024-01-30T06:48:59;4.05;;;1.95;;
54881;SDS011;40775;51.448;4.742;2024-01-30T06:51:26;3.08;;;1.75;;
54881;SDS011;40775;51.448;4.742;2024-01-30T06:53:53;3.60;;;1.67;;
54881;SDS011;40775;51.448;4.742;2024-01-30T06:56:20;3.92;;;1.92;;
54881;SDS011;40775;51.448;4.742;2024-01-30T06:58:48;3.75;;;1.85;;
54881;SDS011;40775;51.448;4.742;2024-01-30T07:01:15;2.75;;;1.38;;
54881;SDS011;40775;51.448;4.742;2024-01-30T07:03:43;3.20;;;1.50;;
54881;SDS011;40775;51.448;4.742;2024-01-30T07:06:10;3.10;;;1.20;;
54881;SDS011;40775;51.448;4.742;2024-01-30T07:08:38;3.60;;;1.65;;
54881;SDS011;40775;51.448;4.742;2024-01-30T07:11:05;2.35;;;1.30;;
54881;SDS011;40775;51.448;4.742;2024-01-30T07:13:34;5.32;;;1.48;;
54881;SDS011;40775;51.448;4.742;2024-01-30T07:16:02;2.25;;;1.08;;
54881;SDS011;40775;51.448;4.742;2024-01-30T07:18:29;3.78;;;1.60;;
54881;SDS011;40775;51.448;4.742;2024-01-30T07:21:01;3.50;;;1.40;;
54881;SDS011;40775;51.448;4.742;2024-01-30T07:23:28;2.63;;;1.43;;
54881;SDS011;40775;51.448;4.742;2024-01-30T07:25:56;3.78;;;1.67;;
54881;SDS011;40775;51.448;4.742;2024-01-30T07:28:23;3.33;;;1.40;;
54881;SDS011;40775;51.448;4.742;2024-01-30T07:30:50;3.47;;;1.58;;
54881;SDS011;40775;51.448;4.742;2024-01-30T07:33:20;4.28;;;1.60;;
54881;SDS011;40775;51.448;4.742;2024-01-30T07:35:48;2.53;;;1.27;;
54881;SDS011;40775;51.448;4.742;2024-01-30T07:38:15;2.95;;;1.40;;
54881;SDS011;40775;51.448;4.742;2024-01-30T07:40:42;3.03;;;1.38;;
54881;SDS011;40775;51.448;4.742;2024-01-30T07:43:09;4.32;;;1.38;;
54881;SDS011;40775;51.448;4.742;2024-01-30T07:45:36;3.30;;;1.20;;
54881;SDS011;40775;51.448;4.742;2024-01-30T07:48:05;3.65;;;1.90;;
54881;SDS011;40775;51.448;4.742;2024-01-30T07:50:32;4.10;;;1.70;;
54881;SDS011;40775;51.448;4.742;2024-01-30T07:53:00;4.57;;;1.50;;
54881;SDS011;40775;51.448;4.742;2024-01-30T07:55:27;2.25;;;1.40;;
54881;SDS011;40775;51.448;4.742;2024-01-30T07:57:55;2.90;;;1.33;;
54881;SDS011;40775;51.448;4.742;2024-01-30T08:00:22;2.20;;;1.15;;
54881;SDS011;40775;51.448;4.742;2024-01-30T08:02:50;3.70;;;1.60;;
54881;SDS011;40775;51.448;4.742;2024-01-30T08:05:17;2.65;;;1.30;;
54881;SDS011;40775;51.448;4.742;2024-01-30T08:07:44;2.25;;;1.17;;
54881;SDS011;40775;51.448;4.742;2024-01-30T08:10:12;4.03;;;1.88;;
54881;SDS011;40775;51.448;4.742;2024-01-30T08:12:40;3.38;;;1.98;;
54881;SDS011;40775;51.448;4.742;2024-01-30T08:15:07;4.57;;;1.45;;
54881;SDS011;40775;51.448;4.742;2024-01-30T08:17:35;4.47;;;1.98;;
54881;SDS011;40775;51.448;4.742;2024-01-30T08:20:02;5.03;;;2.08;;
54881;SDS011;40775;51.448;4.742;2024-01-30T08:22:31;2.63;;;1.55;;
54881;SDS011;40775;51.448;4.742;2024-01-30T08:24:58;4.97;;;1.83;;
54881;SDS011;40775;51.448;4.742;2024-01-30T08:27:25;3.95;;;1.52;;
54881;SDS011;40775;51.448;4.742;2024-01-30T08:29:52;3.90;;;1.75;;
54881;SDS011;40775;51.448;4.742;2024-01-30T08:32:19;4.15;;;1.98;;
54881;SDS011;40775;51.448;4.742;2024-01-30T08:34:46;3.22;;;1.70;;
54881;SDS011;40775;51.448;4.742;2024-01-30T08:37:14;2.85;;;1.42;;
54881;SDS011;40775;51.448;4.742;2024-01-30T08:39:43;4.85;;;1.77;;
54881;SDS011;40775;51.448;4.742;2024-01-30T08:42:10;3.50;;;1.73;;
54881;SDS011;40775;51.448;4.742;2024-01-30T08:44:38;2.90;;;1.65;;
54881;SDS011;40775;51.448;4.742;2024-01-30T08:47:06;3.13;;;1.85;;
54881;SDS011;40775;51.448;4.742;2024-01-30T08:49:33;2.80;;;1.05;;
54881;SDS011;40775;51.448;4.742;2024-01-30T08:52:00;2.78;;;1.65;;
54881;SDS011;40775;51.448;4.742;2024-01-30T08:54:27;4.07;;;1.40;;
54881;SDS011;40775;51.448;4.742;2024-01-30T08:56:54;4.30;;;2.15;;
54881;SDS011;40775;51.448;4.742;2024-01-30T08:59:22;3.13;;;1.20;;
54881;SDS011;40775;51.448;4.742;2024-01-30T09:01:50;5.43;;;1.83;;
54881;SDS011;40775;51.448;4.742;2024-01-30T09:04:32;2.80;;;1.43;;
54881;SDS011;40775;51.448;4.742;2024-01-30T09:06:59;2.63;;;1.63;;
54881;SDS011;40775;51.448;4.742;2024-01-30T09:09:26;4.38;;;1.80;;
54881;SDS011;40775;51.448;4.742;2024-01-30T09:11:54;3.13;;;1.40;;
54881;SDS011;40775;51.448;4.742;2024-01-30T09:14:21;3.63;;;1.65;;
54881;SDS011;40775;51.448;4.742;2024-01-30T09:16:48;4.28;;;1.63;;
54881;SDS011;40775;51.448;4.742;2024-01-30T09:19:15;4.68;;;1.83;;
54881;SDS011;40775;51.448;4.742;2024-01-30T09:21:42;5.28;;;1.75;;
54881;SDS011;40775;51.448;4.742;2024-01-30T09:24:09;4.00;;;1.85;;
54881;SDS011;40775;51.448;4.742;2024-01-30T09:26:37;5.07;;;1.90;;
54881;SDS011;40775;51.448;4.742;2024-01-30T09:29:04;4.78;;;2.33;;
54881;SDS011;40775;51.448;4.742;2024-01-30T09:31:31;5.47;;;2.25;;
54881;SDS011;40775;51.448;4.742;2024-01-30T09:33:58;6.47;;;2.50;;
54881;SDS011;40775;51.448;4.742;2024-01-30T09:36:25;2.67;;;1.58;;
54881;SDS011;40775;51.448;4.742;2024-01-30T09:38:52;5.35;;;2.80;;
54881;SDS011;40775;51.448;4.742;2024-01-30T09:41:19;4.60;;;2.40;;
54881;SDS011;40775;51.448;4.742;2024-01-30T09:43:50;7.18;;;2.83;;
54881;SDS011;40775;51.448;4.742;2024-01-30T09:46:17;4.78;;;2.83;;
54881;SDS011;40775;51.448;4.742;2024-01-30T09:48:47;5.93;;;2.58;;
54881;SDS011;40775;51.448;4.742;2024-01-30T09:51:15;4.55;;;2.33;;
54881;SDS011;40775;51.448;4.742;2024-01-30T09:53:44;5.05;;;2.58;;
54881;SDS011;40775;51.448;4.742;2024-01-30T09:56:12;5.53;;;2.50;;
54881;SDS011;40775;51.448;4.742;2024-01-30T09:58:40;4.38;;;2.38;;
54881;SDS011;40775;51.448;4.742;2024-01-30T10:01:08;6.53;;;3.55;;
54881;SDS011;40775;51.448;4.742;2024-01-30T10:03:35;4.95;;;2.53;;
54881;SDS011;40775;51.448;4.742;2024-01-30T10:06:02;5.18;;;2.55;;
54881;SDS011;40775;51.448;4.742;2024-01-30T10:08:30;6.90;;;3.00;;
54881;SDS011;40775;51.448;4.742;2024-01-30T10:10:58;5.38;;;2.70;;
54881;SDS011;40775;51.448;4.742;2024-01-30T10:13:26;5.30;;;2.65;;
54881;SDS011;40775;51.448;4.742;2024-01-30T10:15:53;3.95;;;1.92;;
54881;SDS011;40775;51.448;4.742;2024-01-30T10:18:24;6.65;;;3.28;;
54881;SDS011;40775;51.448;4.742;2024-01-30T10:20:51;4.78;;;2.10;;
54881;SDS011;40775;51.448;4.742;2024-01-30T10:23:18;6.35;;;2.95;;
54881;SDS011;40775;51.448;4.742;2024-01-30T10:25:46;5.97;;;3.28;;
54881;SDS011;40775;51.448;4.742;2024-01-30T10:28:14;6.57;;;3.30;;
54881;SDS011;40775;51.448;4.742;2024-01-30T10:30:41;8.13;;;3.13;;
54881;SDS011;40775;51.448;4.742;2024-01-30T10:33:09;6.03;;;3.05;;
54881;SDS011;40775;51.448;4.742;2024-01-30T10:35:36;5.30;;;2.95;;
54881;SDS011;40775;51.448;4.742;2024-01-30T10:38:03;8.55;;;2.55;;
54881;SDS011;40775;51.448;4.742;2024-01-30T10:40:33;5.93;;;2.90;;
54881;SDS011;40775;51.448;4.742;2024-01-30T10:43:02;6.78;;;2.95;;
54881;SDS011;40775;51.448;4.742;2024-01-30T10:45:31;4.57;;;2.63;;
54881;SDS011;40775;51.448;4.742;2024-01-30T10:47:59;6.70;;;2.85;;
54881;SDS011;40775;51.448;4.742;2024-01-30T10:50:27;4.35;;;2.45;;
54881;SDS011;40775;51.448;4.742;2024-01-30T10:52:57;3.92;;;2.58;;
54881;SDS011;40775;51.448;4.742;2024-01-30T10:55:25;5.25;;;2.58;;
54881;SDS011;40775;51.448;4.742;2024-01-30T10:57:54;5.50;;;2.60;;
54881;SDS011;40775;51.448;4.742;2024-01-30T11:00:22;5.57;;;2.70;;
54881;SDS011;40775;51.448;4.742;2024-01-30T11:02:50;7.85;;;3.22;;
54881;SDS011;40775;51.448;4.742;2024-01-30T11:05:25;6.18;;;3.25;;
54881;SDS011;40775;51.448;4.742;2024-01-30T11:07:58;4.93;;;2.58;;
54881;SDS011;40775;51.448;4.742;2024-01-30T11:10:25;3.78;;;1.92;;
54881;SDS011;40775;51.448;4.742;2024-01-30T11:12:53;6.45;;;2.88;;
54881;SDS011;40775;51.448;4.742;2024-01-30T11:15:20;6.05;;;2.90;;
54881;SDS011;40775;51.448;4.742;2024-01-30T11:22:47;5.95;;;2.00;;
54881;SDS011;40775;51.448;4.742;2024-01-30T11:25:17;3.60;;;2.15;;
54881;SDS011;40775;51.448;4.742;2024-01-30T11:27:50;4.60;;;1.77;;
54881;SDS011;40775;51.448;4.742;2024-01-30T11:30:32;4.78;;;2.08;;
54881;SDS011;40775;51.448;4.742;2024-01-30T11:33:09;2.85;;;1.67;;
54881;SDS011;40775;51.448;4.742;2024-01-30T11:35:40;3.08;;;1.73;;
54881;SDS011;40775;51.448;4.742;2024-01-30T11:38:10;3.45;;;1.27;;
54881;SDS011;40775;51.448;4.742;2024-01-30T11:40:40;6.60;;;1.83;;
54881;SDS011;40775;51.448;4.742;2024-01-30T11:43:08;3.28;;;1.20;;
54881;SDS011;40775;51.448;4.742;2024-01-30T11:45:36;2.60;;;1.20;;
54881;SDS011;40775;51.448;4.742;2024-01-30T11:48:03;2.85;;;1.00;;
54881;SDS011;40775;51.448;4.742;2024-01-30T11:50:32;2.70;;;1.33;;
54881;SDS011;40775;51.448;4.742;2024-01-30T11:53:01;2.50;;;0.80;;
54881;SDS011;40775;51.448;4.742;2024-01-30T11:55:31;2.42;;;0.80;;
54881;SDS011;40775;51.448;4.742;2024-01-30T11:58:01;1.90;;;0.68;;
54881;SDS011;40775;51.448;4.742;2024-01-30T12:00:29;1.85;;;0.80;;
54881;SDS011;40775;51.448;4.742;2024-01-30T12:02:57;3.67;;;1.33;;
54881;SDS011;40775;51.448;4.742;2024-01-30T12:05:27;1.50;;;0.63;;
54881;SDS011;40775;51.448;4.742;2024-01-30T12:07:55;1.75;;;0.80;;
54881;SDS011;40775;51.448;4.742;2024-01-30T12:10:26;1.52;;;0.80;;
54881;SDS011;40775;51.448;4.742;2024-01-30T12:12:54;2.08;;;0.80;;
54881;SDS011;40775;51.448;4.742;2024-01-30T12:15:22;1.90;;;0.98;;
54881;SDS011;40775;51.448;4.742;2024-01-30T12:17:49;2.13;;;0.98;;
54881;SDS011;40775;51.448;4.742;2024-01-30T12:20:19;2.13;;;1.20;;
54881;SDS011;40775;51.448;4.742;2024-01-30T12:22:49;2.95;;;1.55;;
54881;SDS011;40775;51.448;4.742;2024-01-30T12:25:17;3.03;;;1.10;;
54881;SDS011;40775;51.448;4.742;2024-01-30T12:27:47;1.60;;;0.95;;
54881;SDS011;40775;51.448;4.742;2024-01-30T12:30:18;1.45;;;0.95;;
54881;SDS011;40775;51.448;4.742;2024-01-30T12:32:49;1.42;;;1.05;;
54881;SDS011;40775;51.448;4.742;2024-01-30T12:35:18;2.75;;;1.08;;
54881;SDS011;40775;51.448;4.742;2024-01-30T12:37:48;1.80;;;0.77;;
54881;SDS011;40775;51.448;4.742;2024-01-30T12:40:16;2.80;;;1.30;;
54881;SDS011;40775;51.448;4.742;2024-01-30T12:42:45;2.42;;;1.50;;
54881;SDS011;40775;51.448;4.742;2024-01-30T12:47:48;2.10;;;1.20;;
54881;SDS011;40775;51.448;4.742;2024-01-30T12:50:15;2.25;;;0.98;;
54881;SDS011;40775;51.448;4.742;2024-01-30T12:52:43;2.47;;;1.15;;
54881;SDS011;40775;51.448;4.742;2024-01-30T12:55:15;2.13;;;1.00;;
54881;SDS011;40775;51.448;4.742;2024-01-30T12:57:43;2.03;;;0.70;;
54881;SDS011;40775;51.448;4.742;2024-01-30T13:00:10;1.50;;;0.85;;
54881;SDS011;40775;51.448;4.742;2024-01-30T13:02:38;2.20;;;0.60;;
54881;SDS011;40775;51.448;4.742;2024-01-30T13:05:05;1.85;;;0.75;;
54881;SDS011;40775;51.448;4.742;2024-01-30T13:07:34;1.85;;;0.65;;
54881;SDS011;40775;51.448;4.742;2024-01-30T13:10:02;3.30;;;0.70;;
54881;SDS011;40775;51.448;4.742;2024-01-30T13:12:30;1.77;;;0.68;;
54881;SDS011;40775;51.448;4.742;2024-01-30T13:15:01;2.05;;;0.50;;
54881;SDS011;40775;51.448;4.742;2024-01-30T13:17:32;2.50;;;0.70;;
54881;SDS011;40775;51.448;4.742;2024-01-30T13:19:59;1.23;;;0.65;;
54881;SDS011;40775;51.448;4.742;2024-01-30T13:22:36;0.75;;;0.63;;
54881;SDS011;40775;51.448;4.742;2024-01-30T13:25:05;1.08;;;0.45;;
54881;SDS011;40775;51.448;4.742;2024-01-30T13:27:33;1.13;;;0.50;;
54881;SDS011;40775;51.448;4.742;2024-01-30T13:30:04;1.20;;;0.40;;
54881;SDS011;40775;51.448;4.742;2024-01-30T13:32:33;1.93;;;0.47;;
54881;SDS011;40775;51.448;4.742;2024-01-30T13:35:00;1.67;;;0.60;;
54881;SDS011;40775;51.448;4.742;2024-01-30T13:37:28;0.77;;;0.55;;
54881;SDS011;40775;51.448;4.742;2024-01-30T13:39:56;2.20;;;0.43;;
54881;SDS011;40775;51.448;4.742;2024-01-30T13:42:23;0.45;;;0.30;;
54881;SDS011;40775;51.448;4.742;2024-01-30T13:44:50;1.27;;;0.43;;
54881;SDS011;40775;51.448;4.742;2024-01-30T13:47:17;0.73;;;0.47;;
54881;SDS011;40775;51.448;4.742;2024-01-30T13:49:45;3.10;;;1.42;;
54881;SDS011;40775;51.448;4.742;2024-01-30T13:52:12;3.80;;;1.48;;
54881;SDS011;40775;51.448;4.742;2024-01-30T13:54:41;3.42;;;1.33;;
54881;SDS011;40775;51.448;4.742;2024-01-30T13:57:08;1.65;;;0.85;;
54881;SDS011;40775;51.448;4.742;2024-01-30T13:59:35;5.32;;;1.05;;
54881;SDS011;40775;51.448;4.742;2024-01-30T14:02:04;1.52;;;0.88;;
54881;SDS011;40775;51.448;4.742;2024-01-30T14:04:32;1.58;;;0.57;;
54881;SDS011;40775;51.448;4.742;2024-01-30T14:06:59;4.00;;;1.52;;
54881;SDS011;40775;51.448;4.742;2024-01-30T14:09:30;2.08;;;0.75;;
54881;SDS011;40775;51.448;4.742;2024-01-30T14:11:59;5.25;;;1.75;;
54881;SDS011;40775;51.448;4.742;2024-01-30T14:14:26;1.05;;;0.52;;
54881;SDS011;40775;51.448;4.742;2024-01-30T14:16:53;0.60;;;0.43;;
54881;SDS011;40775;51.448;4.742;2024-01-30T14:19:20;1.45;;;0.50;;
54881;SDS011;40775;51.448;4.742;2024-01-30T14:21:48;1.38;;;0.45;;
54881;SDS011;40775;51.448;4.742;2024-01-30T14:24:15;0.77;;;0.50;;
54881;SDS011;40775;51.448;4.742;2024-01-30T14:26:42;5.22;;;0.70;;
54881;SDS011;40775;51.448;4.742;2024-01-30T14:29:10;1.13;;;0.73;;
54881;SDS011;40775;51.448;4.742;2024-01-30T14:31:37;1.15;;;0.60;;
54881;SDS011;40775;51.448;4.742;2024-01-30T14:34:04;2.92;;;0.90;;
54881;SDS011;40775;51.448;4.742;2024-01-30T14:36:32;2.70;;;1.00;;
54881;SDS011;40775;51.448;4.742;2024-01-30T14:38:59;1.95;;;1.17;;
54881;SDS011;40775;51.448;4.742;2024-01-30T14:41:26;3.17;;;0.90;;
54881;SDS011;40775;51.448;4.742;2024-01-30T14:43:54;1.48;;;0.95;;
54881;SDS011;40775;51.448;4.742;2024-01-30T14:46:21;1.60;;;0.80;;
54881;SDS011;40775;51.448;4.742;2024-01-30T14:48:49;1.20;;;0.70;;
54881;SDS011;40775;51.448;4.742;2024-01-30T14:51:18;1.05;;;0.73;;
54881;SDS011;40775;51.448;4.742;2024-01-30T14:53:45;1.45;;;0.80;;
54881;SDS011;40775;51.448;4.742;2024-01-30T14:56:12;1.80;;;0.75;;
54881;SDS011;40775;51.448;4.742;2024-01-30T14:58:39;5.45;;;1.70;;